Time;durP1;ratioP1;P1;durP2;ratioP2;P2;SDS_P1;SDS_P2;PMS_P1;PMS_P2;Temp;Humidity;BMP_temperature;BMP_pressure;BME280_temperature;BME280_humidity;BME280_pressure;Samples;Min_cycle;Max_cycle;Signal;HPM_P1;HPM_P2
2022/06/05 00:01:04;;;;;;;1999.90;999.90;;;17.20;99.90;;;;;;4935693;29;20028;-78
2022/06/05 00:04:00;;;;;;;1999.90;999.90;;;17.20;99.90;;;;;;4926824;29;20039;-78
2022/06/05 00:06:37;;;;;;;1999.90;999.90;;;17.20;99.90;;;;;;4937236;29;20066;-79
2022/06/05 00:09:20;;;;;;;1999.90;999.90;;;17.00;99.90;;;;;;4938170;29;20031;-78
2022/06/05 00:12:08;;;;;;;1999.90;999.90;;;17.00;99.90;;;;;;4938209;29;20024;-78
2022/06/05 00:14:37;;;;;;;1999.90;999.90;;;16.90;99.90;;;;;;4930371;29;20072;-78
2022/06/05 00:17:05;;;;;;;1999.90;999.90;;;16.90;99.90;;;;;;4938253;29;20432;-78
2022/06/05 00:19:31;;;;;;;1999.90;999.90;;;16.80;99.90;;;;;;4937799;29;20020;-78
2022/06/05 00:21:56;;;;;;;1999.90;999.90;;;16.80;99.90;;;;;;4930109;29;20028;-78
2022/06/05 00:24:22;;;;;;;1999.90;999.90;;;16.80;99.90;;;;;;4950346;28;20058;-78
2022/06/05 00:27:02;;;;;;;1999.90;999.90;;;16.80;99.90;;;;;;4976402;28;20114;-79
2022/06/05 00:30:07;;;;;;;1999.90;999.90;;;16.70;99.90;;;;;;4976259;28;20486;-78
2022/06/05 00:32:53;;;;;;;1999.90;999.90;;;16.70;99.90;;;;;;4961458;28;20077;-78
2022/06/05 00:35:21;;;;;;;1999.90;999.90;;;16.70;99.90;;;;;;4975666;28;20098;-78
2022/06/05 00:38:12;;;;;;;1999.90;999.90;;;16.70;99.90;;;;;;4972392;28;20064;-78
2022/06/05 00:40:57;;;;;;;1999.90;999.90;;;16.70;99.90;;;;;;4970727;28;20098;-78
2022/06/05 00:43:24;;;;;;;1999.90;999.90;;;16.60;99.90;;;;;;4967640;28;20394;-78
2022/06/05 00:45:52;;;;;;;1999.90;999.90;;;16.60;99.90;;;;;;4972116;28;20034;-78
2022/06/05 00:48:18;;;;;;;1999.90;999.90;;;16.60;99.90;;;;;;4957069;28;20471;-78
2022/06/05 00:50:45;;;;;;;1999.90;999.90;;;16.60;99.90;;;;;;4975708;28;20019;-78
2022/06/05 00:53:11;;;;;;;1999.90;999.90;;;16.60;99.90;;;;;;4976215;28;20382;-78
2022/06/05 00:55:44;;;;;;;1999.90;999.90;;;16.60;99.90;;;;;;4975887;28;20049;-78
2022/06/05 00:58:09;;;;;;;1999.90;999.90;;;16.70;99.90;;;;;;4948999;28;20506;-78
2022/06/05 01:00:39;;;;;;;1999.90;999.90;;;16.70;99.90;;;;;;4975636;28;20104;-78
2022/06/05 01:03:08;;;;;;;1999.90;999.90;;;16.80;99.90;;;;;;4970474;28;20031;-78
2022/06/05 01:05:33;;;;;;;1999.90;999.90;;;16.80;99.90;;;;;;4975068;28;20056;-78
2022/06/05 01:07:59;;;;;;;1999.90;999.90;;;16.90;99.90;;;;;;4975181;28;20413;-78
2022/06/05 01:10:48;;;;;;;1999.90;999.90;;;16.90;99.90;;;;;;4958163;28;20055;-78
2022/06/05 01:13:33;;;;;;;1999.90;999.90;;;16.90;99.90;;;;;;4922698;28;20486;-78
2022/06/05 01:16:39;;;;;;;1999.90;999.90;;;16.90;99.90;;;;;;4970021;28;20023;-78
2022/06/05 01:19:26;;;;;;;1999.90;999.90;;;17.00;99.90;;;;;;4974460;28;20069;-78
2022/06/05 01:22:31;;;;;;;1999.90;999.90;;;17.00;99.90;;;;;;4959223;28;20049;-78
2022/06/05 01:25:30;;;;;;;1999.90;999.90;;;17.00;99.90;;;;;;4956100;28;20075;-79
2022/06/05 01:28:03;;;;;;;1999.90;999.90;;;17.10;99.90;;;;;;4973353;28;20023;-78
2022/06/05 01:30:30;;;;;;;1999.90;999.90;;;17.10;99.90;;;;;;4975061;28;20030;-78
2022/06/05 01:33:14;;;;;;;1999.90;999.90;;;17.10;99.90;;;;;;4974947;28;20054;-78
2022/06/05 01:35:51;;;;;;;1999.90;999.90;;;17.10;99.90;;;;;;4974841;28;20038;-79
2022/06/05 01:38:31;;;;;;;1999.90;999.90;;;17.10;99.90;;;;;;4966518;28;20070;-78
2022/06/05 01:41:02;;;;;;;1999.90;999.90;;;17.10;99.90;;;;;;4968648;28;20034;-78
2022/06/05 01:43:34;;;;;;;1999.90;999.90;;;17.10;99.90;;;;;;4967171;28;20019;-78
2022/06/05 01:46:16;;;;;;;1999.90;999.90;;;17.10;99.90;;;;;;4969520;28;20376;-78
2022/06/05 01:49:00;;;;;;;1999.90;999.90;;;17.10;99.90;;;;;;4972438;28;20034;-78
2022/06/05 01:51:32;;;;;;;1999.90;999.90;;;17.10;99.90;;;;;;4974691;28;20019;-78
2022/06/05 01:54:03;;;;;;;1999.90;999.90;;;17.10;99.90;;;;;;4975072;28;20018;-78
2022/06/05 01:56:38;;;;;;;1999.90;999.90;;;17.20;99.90;;;;;;4974962;28;20102;-78
2022/06/05 01:59:16;;;;;;;1999.90;999.90;;;17.10;99.90;;;;;;4948792;28;20444;-78
2022/06/05 02:01:48;;;;;;;1999.90;999.90;;;17.00;99.90;;;;;;4974468;28;20508;-78
2022/06/05 02:04:20;;;;;;;1999.90;999.90;;;17.00;99.90;;;;;;4969814;28;20101;-78
2022/06/05 02:06:53;;;;;;;1999.90;999.90;;;17.00;99.90;;;;;;4974169;28;20046;-79
2022/06/05 02:09:21;;;;;;;;;;;17.00;99.90;;;;;;4974641;28;20042;-78
2022/06/05 02:11:48;;;;;;;1999.90;999.90;;;17.00;99.90;;;;;;4974485;28;19910;-78
2022/06/05 02:14:13;;;;;;;1999.90;999.90;;;17.00;99.90;;;;;;4965195;28;20035;-78
2022/06/05 02:16:40;;;;;;;1999.90;999.90;;;17.00;99.90;;;;;;4971254;28;20033;-78
2022/06/05 02:19:24;;;;;;;1999.90;999.90;;;17.00;99.90;;;;;;4974080;28;20043;-78
2022/06/05 02:21:54;;;;;;;1999.90;999.90;;;17.00;99.90;;;;;;4973401;28;20026;-78
2022/06/05 02:24:20;;;;;;;1999.90;999.90;;;17.00;99.90;;;;;;4960873;28;20411;-78
2022/06/05 02:26:45;;;;;;;1999.90;999.90;;;16.90;99.90;;;;;;4974252;28;20033;-79
2022/06/05 02:29:21;;;;;;;1999.90;999.90;;;16.90;99.90;;;;;;4973705;28;20039;-78
2022/06/05 02:32:23;;;;;;;1999.90;999.90;;;16.90;99.90;;;;;;4973978;28;20027;-78
2022/06/05 02:35:10;;;;;;;1999.90;999.90;;;16.90;99.90;;;;;;4974295;28;20031;-79
2022/06/05 02:37:48;;;;;;;1999.90;999.90;;;16.90;99.90;;;;;;4971121;28;20033;-78
2022/06/05 02:40:45;;;;;;;1999.90;999.90;;;16.90;99.90;;;;;;4964225;28;20037;-78
2022/06/05 02:43:32;;;;;;;1999.90;999.90;;;17.00;99.90;;;;;;4948181;29;20063;-78
2022/06/05 02:46:20;;;;;;;1999.90;999.90;;;17.00;99.90;;;;;;4968967;28;20062;-78
2022/06/05 02:49:16;;;;;;;1999.90;999.90;;;17.00;99.90;;;;;;4969236;28;20062;-79
2022/06/05 02:51:45;;;;;;;1999.90;999.90;;;17.00;99.90;;;;;;4973761;28;20363;-78
2022/06/05 02:54:23;;;;;;;1999.90;999.90;;;17.00;99.90;;;;;;4973744;28;20023;-78
2022/06/05 02:56:49;;;;;;;1999.90;999.90;;;17.00;99.90;;;;;;4973967;28;20473;-78
2022/06/05 02:59:15;;;;;;;1999.90;999.90;;;17.00;99.90;;;;;;4964944;28;20115;-78
2022/06/05 03:04:25;;;;;;;1999.90;999.90;;;17.10;99.90;;;;;;4967150;28;20037;-78
2022/06/05 03:06:51;;;;;;;1999.90;999.90;;;17.20;99.90;;;;;;4973629;28;20388;-78
2022/06/05 03:09:16;;;;;;;1999.90;999.90;;;17.10;99.90;;;;;;4972716;28;20578;-79
2022/06/05 03:11:42;;;;;;;1999.90;999.90;;;17.20;99.90;;;;;;4946250;28;20537;-78
2022/06/05 03:14:08;;;;;;;1999.90;999.90;;;17.20;99.90;;;;;;4965421;28;20050;-78
2022/06/05 03:16:34;;;;;;;1999.90;999.90;;;17.20;99.90;;;;;;4969566;28;20501;-79
2022/06/05 03:19:01;;;;;;;1999.90;999.90;;;17.10;99.90;;;;;;4973620;28;20035;-79
2022/06/05 03:21:30;;;;;;;1999.90;999.90;;;17.10;99.90;;;;;;4972069;28;20035;-78
2022/06/05 03:23:56;;;;;;;1999.90;999.90;;;17.00;99.90;;;;;;4962326;28;20058;-78
2022/06/05 03:26:22;;;;;;;1999.90;999.90;;;17.00;99.90;;;;;;4971711;28;20023;-78
2022/06/05 03:28:48;;;;;;;1999.90;999.90;;;17.00;99.90;;;;;;4973723;28;20026;-79
2022/06/05 03:31:13;;;;;;;1999.90;999.90;;;17.00;99.90;;;;;;4973411;28;20046;-78
2022/06/05 03:33:39;;;;;;;1999.90;999.90;;;17.00;99.90;;;;;;4973522;28;20056;-78
2022/06/05 03:36:10;;;;;;;1999.90;999.90;;;16.90;99.90;;;;;;4974643;28;20023;-78
2022/06/05 03:38:36;;;;;;;1999.90;999.90;;;16.90;99.90;;;;;;4967022;28;20609;-78
2022/06/05 03:41:03;;;;;;;1999.90;999.90;;;16.90;99.90;;;;;;4967297;28;20019;-78
2022/06/05 03:43:29;;;;;;;1999.90;999.90;;;16.90;99.90;;;;;;4964786;28;20030;-79
2022/06/05 03:46:10;;;;;;;1999.90;999.90;;;16.80;99.90;;;;;;4972237;28;20032;-79
2022/06/05 03:48:36;;;;;;;1999.90;999.90;;;16.80;99.90;;;;;;4974284;28;20806;-78
2022/06/05 03:51:11;;;;;;;1999.90;999.90;;;16.80;99.90;;;;;;4959328;28;20031;-78
2022/06/05 03:53:38;;;;;;;1999.90;999.90;;;16.80;99.90;;;;;;4977081;28;20479;-78
2022/06/05 03:56:11;;;;;;;1999.90;999.90;;;16.70;99.90;;;;;;4977067;28;20030;-78
2022/06/05 03:58:37;;;;;;;1999.90;999.90;;;16.70;99.90;;;;;;4968060;28;20397;-78
2022/06/05 04:01:03;;;;;;;1999.90;999.90;;;16.70;99.90;;;;;;4976787;28;20094;-78
2022/06/05 04:03:29;;;;;;;1999.90;999.90;;;16.60;99.90;;;;;;4975226;28;20019;-78
2022/06/05 04:05:55;;;;;;;1999.90;999.90;;;16.70;99.90;;;;;;4976523;28;20053;-78
2022/06/05 04:08:20;;;;;;;1999.90;999.90;;;16.70;99.90;;;;;;4975947;28;20026;-77
2022/06/05 04:10:46;;;;;;;1999.90;999.90;;;16.80;99.90;;;;;;4976300;28;20085;-77
2022/06/05 04:13:12;;;;;;;1999.90;999.90;;;16.70;99.90;;;;;;4971014;28;20385;-77
2022/06/05 04:15:41;;;;;;;1999.90;999.90;;;16.70;99.90;;;;;;4971405;28;20070;-77
2022/06/05 04:18:07;;;;;;;1999.90;999.90;;;16.80;99.90;;;;;;4963635;28;20089;-77
2022/06/05 04:20:33;;;;;;;1999.90;999.90;;;16.80;99.90;;;;;;4975976;28;20110;-77
2022/06/05 04:23:00;;;;;;;1999.90;999.90;;;16.80;99.90;;;;;;4962795;28;20039;-77
2022/06/05 04:25:26;;;;;;;1999.90;999.90;;;16.80;99.90;;;;;;4967373;28;20023;-77
2022/06/05 04:27:52;;;;;;;1999.90;999.90;;;16.80;99.90;;;;;;4976354;28;20493;-77
2022/06/05 04:30:18;;;;;;;1999.90;999.90;;;16.70;99.90;;;;;;4976511;28;20089;-77
2022/06/05 04:32:43;;;;;;;1999.90;999.90;;;16.70;99.90;;;;;;4976042;28;20034;-77
2022/06/05 04:35:10;;;;;;;1999.90;999.90;;;16.70;99.90;;;;;;4976275;28;20066;-77
2022/06/05 04:37:36;;;;;;;1999.90;999.90;;;16.60;99.90;;;;;;4973560;28;20486;-77
2022/06/05 04:40:03;;;;;;;1999.90;999.90;;;16.60;99.90;;;;;;4966861;28;20030;-73
2022/06/05 04:42:28;;;;;;;1999.90;999.90;;;16.60;99.90;;;;;;4974179;28;20082;-77
2022/06/05 04:44:54;;;;;;;1999.90;999.90;;;16.70;99.90;;;;;;4969414;28;20066;-77
2022/06/05 04:47:20;;;;;;;1999.90;999.90;;;16.70;99.90;;;;;;4964864;28;20066;-77
2022/06/05 04:49:45;;;;;;;1999.90;999.90;;;16.70;99.90;;;;;;4975968;28;20572;-77
2022/06/05 04:52:12;;;;;;;1999.90;999.90;;;16.70;99.90;;;;;;4958324;28;20393;-77
2022/06/05 04:54:37;;;;;;;1999.90;999.90;;;16.70;99.90;;;;;;4976029;28;20053;-77
2022/06/05 04:57:04;;;;;;;1999.90;999.90;;;16.70;99.90;;;;;;4973915;28;20474;-77
2022/06/05 04:59:29;;;;;;;1999.90;999.90;;;16.70;99.90;;;;;;4969328;28;20031;-77
2022/06/05 05:01:55;;;;;;;1999.90;999.90;;;16.70;99.90;;;;;;4972866;28;20027;-77
2022/06/05 05:04:21;;;;;;;1999.90;999.90;;;16.80;99.90;;;;;;4967869;28;20513;-77
2022/06/05 05:06:46;;;;;;;1999.90;999.90;;;16.80;99.90;;;;;;4975320;28;20052;-74
2022/06/05 05:09:13;;;;;;;1999.90;999.90;;;16.80;99.90;;;;;;4975279;28;20035;-77
2022/06/05 05:11:39;;;;;;;1999.90;999.90;;;16.90;99.90;;;;;;4975565;28;20097;-77
2022/06/05 05:14:05;;;;;;;1999.90;999.90;;;16.90;99.90;;;;;;4967615;28;20058;-77
2022/06/05 05:16:31;;;;;;;1999.90;999.90;;;16.90;99.90;;;;;;4971947;28;20085;-77
2022/06/05 05:18:57;;;;;;;1999.90;999.90;;;17.00;99.90;;;;;;4975412;28;20027;-77
2022/06/05 05:21:25;;;;;;;1999.90;999.90;;;17.00;99.90;;;;;;4974940;28;20540;-78
2022/06/05 05:23:51;;;;;;;1999.90;999.90;;;17.00;99.90;;;;;;4964841;28;20086;-77
2022/06/05 05:26:23;;;;;;;1999.90;999.90;;;17.10;99.90;;;;;;4975323;28;20367;-77
2022/06/05 05:28:49;;;;;;;1999.90;999.90;;;17.20;99.90;;;;;;4975208;28;20035;-77
2022/06/05 05:31:22;;;;;;;1999.90;999.90;;;17.30;99.90;;;;;;4975139;28;20015;-77
2022/06/05 05:33:49;;;;;;;1999.90;999.90;;;17.20;99.90;;;;;;4974991;28;20504;-77
2022/06/05 05:36:17;;;;;;;1999.90;999.90;;;17.20;99.90;;;;;;4973606;28;20019;-77
2022/06/05 05:42:04;;;;;;;1999.90;999.90;;;17.20;99.90;;;;;;4963856;28;20063;-77
2022/06/05 05:44:14;;;;;;;1999.90;999.90;;;17.20;99.90;;;;;;4967611;28;20070;-77
2022/06/05 05:46:41;;;;;;;1999.90;999.90;;;17.30;99.90;;;;;;4965200;28;20027;-77
2022/06/05 05:49:07;;;;;;;1999.90;999.90;;;17.20;99.90;;;;;;4974765;28;20023;-77
2022/06/05 05:51:33;;;;;;;1999.90;999.90;;;17.30;99.90;;;;;;4974753;28;20027;-77
2022/06/05 05:53:59;;;;;;;1999.90;999.90;;;17.30;99.90;;;;;;4974966;28;20026;-77
2022/06/05 05:56:24;;;;;;;1999.90;999.90;;;17.40;99.90;;;;;;4974783;28;20506;-77
2022/06/05 05:58:50;;;;;;;1999.90;999.90;;;17.40;99.90;;;;;;4966369;28;20026;-77
2022/06/05 06:01:15;;;;;;;1999.90;999.90;;;17.50;99.90;;;;;;4974572;28;20038;-77
2022/06/05 06:03:41;;;;;;;1999.90;999.90;;;17.40;99.90;;;;;;4973820;28;20034;-77
2022/06/05 06:06:07;;;;;;;1999.90;999.90;;;17.40;99.90;;;;;;4974678;28;20412;-77
2022/06/05 06:08:33;;;;;;;1999.90;999.90;;;17.70;99.90;;;;;;4974237;28;20062;-77
2022/06/05 06:10:59;;;;;;;1999.90;999.90;;;17.80;99.90;;;;;;4972132;28;20059;-77
2022/06/05 06:13:25;;;;;;;1999.90;999.90;;;17.80;99.90;;;;;;4960943;28;20030;-77
2022/06/05 06:15:50;;;;;;;1999.90;999.90;;;17.80;99.90;;;;;;4968677;28;20037;-77
2022/06/05 06:18:17;;;;;;;1999.90;999.90;;;17.70;99.90;;;;;;4974206;28;20027;-77
2022/06/05 06:20:44;;;;;;;1999.90;999.90;;;17.70;99.90;;;;;;4974503;28;20035;-77
2022/06/05 06:23:10;;;;;;;1999.90;999.90;;;17.90;99.90;;;;;;4959297;28;20058;-76
2022/06/05 06:25:37;;;;;;;1999.90;999.90;;;17.90;99.90;;;;;;4966510;28;20406;-77
2022/06/05 06:28:04;;;;;;;1999.90;999.90;;;18.00;99.90;;;;;;4968994;28;20027;-77
2022/06/05 06:30:31;;;;;;;1999.90;999.90;;;18.00;99.90;;;;;;4968589;28;20027;-77
2022/06/05 06:32:57;;;;;;;1999.90;999.90;;;18.10;99.90;;;;;;4966471;28;20031;-77
2022/06/05 06:35:23;;;;;;;1999.90;999.90;;;17.90;99.90;;;;;;4968575;28;20093;-77
2022/06/05 06:37:49;;;;;;;1999.90;999.90;;;17.90;99.90;;;;;;4969871;28;20023;-77
2022/06/05 06:40:15;;;;;;;1999.90;999.90;;;17.90;99.90;;;;;;4962852;28;20398;-77
2022/06/05 06:42:40;;;;;;;1999.90;999.90;;;18.00;99.90;;;;;;4970269;28;20027;-77
2022/06/05 06:45:07;;;;;;;1999.90;999.90;;;18.10;99.90;;;;;;4968553;28;20027;-77
2022/06/05 06:47:33;;;;;;;1999.90;999.90;;;18.20;99.90;;;;;;4962846;28;20030;-77
2022/06/05 06:49:59;;;;;;;1999.90;999.90;;;18.30;99.90;;;;;;4974038;28;20166;-77
2022/06/05 06:52:25;;;;;;;1999.90;999.90;;;18.40;99.90;;;;;;4973584;28;20105;-77
2022/06/05 06:54:50;;;;;;;1999.90;999.90;;;18.40;99.90;;;;;;4956597;28;20486;-77
2022/06/05 06:57:17;;;;;;;1999.90;999.90;;;18.30;99.90;;;;;;4970219;28;20027;-77
2022/06/05 06:59:42;;;;;;;1999.90;999.90;;;18.20;99.90;;;;;;4968325;28;20026;-77
2022/06/05 07:02:08;;;;;;;1999.90;999.90;;;18.20;99.90;;;;;;4973705;28;20035;-74
2022/06/05 07:04:34;;;;;;;1999.90;999.90;;;18.40;99.90;;;;;;4965591;28;20027;-76
2022/06/05 07:07:00;;;;;;;1999.90;999.90;;;18.50;99.90;;;;;;4973524;28;20041;-77
2022/06/05 07:09:26;;;;;;;1999.90;999.90;;;18.40;99.90;;;;;;4973819;28;20057;-77
2022/06/05 07:11:51;;;;;;;1999.90;999.90;;;18.40;99.90;;;;;;4958214;28;20038;-77
2022/06/05 07:14:17;;;;;;;1999.90;999.90;;;18.30;99.90;;;;;;4969078;28;20023;-77
2022/06/05 07:16:43;;;;;;;1999.90;999.90;;;18.20;99.90;;;;;;4977264;28;20093;-77
2022/06/05 07:19:09;;;;;;;1999.90;999.90;;;17.90;99.90;;;;;;4977010;28;20022;-77
2022/06/05 07:21:34;;;;;;;1999.90;999.90;;;17.90;99.90;;;;;;4972480;28;20406;-77
2022/06/05 07:24:01;;;;;;;1999.90;999.90;;;17.90;99.90;;;;;;4961207;28;20074;-76
2022/06/05 07:26:30;;;;;;;1999.90;999.90;;;17.90;99.90;;;;;;4966444;28;20486;-77
2022/06/05 07:28:57;;;;;;;1999.90;999.90;;;17.80;99.90;;;;;;4977332;28;20019;-77
2022/06/05 07:31:26;;;;;;;1999.90;999.90;;;17.90;99.90;;;;;;4977340;28;20050;-77
2022/06/05 07:33:52;;;;;;;1999.90;999.90;;;18.00;99.90;;;;;;4977412;28;20106;-77
2022/06/05 07:36:20;;;;;;;1999.90;999.90;;;18.10;99.90;;;;;;4977204;28;20050;-76
2022/06/05 07:38:47;;;;;;;1999.90;999.90;;;18.20;99.90;;;;;;4965465;28;20012;-77
2022/06/05 07:41:29;;;;;;;1999.90;999.90;;;18.30;99.90;;;;;;4967797;28;20486;-76
2022/06/05 07:43:55;;;;;;;1999.90;999.90;;;18.20;99.90;;;;;;4969131;28;20055;-77
2022/06/05 07:46:22;;;;;;;1999.90;999.90;;;18.10;99.90;;;;;;4968814;28;20254;-77
2022/06/05 07:48:48;;;;;;;1999.90;999.90;;;18.10;99.90;;;;;;4975804;28;20085;-77
2022/06/05 07:57:00;;;;;;;1999.90;999.90;;;18.20;99.90;;;;;;4976126;28;20390;-77
2022/06/05 07:59:28;;;;;;;1999.90;999.90;;;18.70;99.90;;;;;;4970391;28;20510;-77
2022/06/05 08:01:53;;;;;;;1999.90;999.90;;;21.90;99.90;;;;;;4976723;28;20082;-77
2022/06/05 08:04:19;;;;;;;1999.90;999.90;;;22.40;99.90;;;;;;4963504;28;20487;-77
2022/06/05 08:06:45;;;;;;;1999.90;999.90;;;20.70;99.90;;;;;;4976288;28;20034;-77
2022/06/05 08:09:11;;;;;;;1999.90;999.90;;;19.70;99.90;;;;;;4976663;28;20034;-77
2022/06/05 08:11:37;;;;;;;1999.90;999.90;;;19.80;99.90;;;;;;4975744;28;20034;-77
2022/06/05 08:14:03;;;;;;;1999.90;999.90;;;19.80;99.90;;;;;;4969374;28;20039;-77
2022/06/05 08:16:29;;;;;;;1999.90;999.90;;;19.50;99.90;;;;;;4968595;28;20019;-77
2022/06/05 08:18:55;;;;;;;1999.90;999.90;;;21.30;99.90;;;;;;4976757;28;20027;-77
2022/06/05 08:21:22;;;;;;;1999.90;999.90;;;20.40;99.90;;;;;;4974804;28;20090;-77
2022/06/05 08:23:48;;;;;;;1999.90;999.90;;;19.80;99.90;;;;;;4963509;28;20044;-77
2022/06/05 08:26:14;;;;;;;1999.90;999.90;;;19.80;99.90;;;;;;4976626;28;20041;-77
2022/06/05 08:28:40;;;;;;;1999.90;999.90;;;21.10;99.90;;;;;;4976160;28;20029;-77
2022/06/05 08:31:07;;;;;;;1999.90;999.90;;;20.10;99.90;;;;;;4975895;28;20027;-77
2022/06/05 08:33:33;;;;;;;1999.90;999.90;;;20.00;99.90;;;;;;4976463;28;20505;-77
2022/06/05 08:35:59;;;;;;;1999.90;999.90;;;20.20;99.90;;;;;;4972335;28;20121;-77
2022/06/05 08:41:32;;;;;;;1999.90;999.90;;;21.20;99.90;;;;;;4966942;28;20185;-77
2022/06/05 08:44:09;;;;;;;1999.90;999.90;;;23.50;99.70;;;;;;4968142;28;20082;-77
2022/06/05 08:46:37;;;;;;;1999.90;999.90;;;21.40;99.90;;;;;;4948618;29;20495;-77
2022/06/05 08:49:21;;;;;;;1999.90;999.90;;;20.20;99.90;;;;;;4974226;28;20110;-76
2022/06/05 08:51:48;;;;;;;1999.90;999.90;;;19.60;99.90;;;;;;4957711;28;20482;-77
2022/06/05 08:54:49;;;;;;;1999.90;999.90;;;20.10;99.90;;;;;;4975995;28;20055;-77
2022/06/05 08:57:24;;;;;;;1999.90;999.90;;;22.70;99.90;;;;;;4956162;28;20031;-77
2022/06/05 09:00:13;;;;;;;1999.90;999.90;;;22.00;99.90;;;;;;4954979;28;20548;-77
2022/06/05 09:03:00;;;;;;;1999.90;999.90;;;20.80;99.90;;;;;;4975814;28;20490;-77
2022/06/05 09:05:42;;;;;;;1999.90;999.90;;;23.50;99.90;;;;;;4966780;28;20049;-77
2022/06/05 09:08:17;;;;;;;1999.90;999.90;;;22.70;99.90;;;;;;4975701;28;20019;-77
2022/06/05 09:10:42;;;;;;;1999.90;999.90;;;21.30;99.90;;;;;;4975403;28;20023;-77
2022/06/05 09:13:16;;;;;;;1999.90;999.90;;;21.00;99.90;;;;;;4970672;28;20026;-77
2022/06/05 09:15:49;;;;;;;1999.90;999.90;;;20.50;99.90;;;;;;4970216;28;20030;-77
2022/06/05 09:18:18;;;;;;;1999.90;999.90;;;20.10;99.90;;;;;;4975606;28;20479;-77
2022/06/05 09:20:56;;;;;;;1999.90;999.90;;;19.90;99.90;;;;;;4975015;28;20557;-77
2022/06/05 09:23:40;;;;;;;1999.90;999.90;;;19.80;99.90;;;;;;4958417;28;20053;-77
2022/06/05 09:26:13;;;;;;;1999.90;999.90;;;19.60;99.90;;;;;;4971881;28;20027;-77
2022/06/05 09:29:03;;;;;;;1999.90;999.90;;;19.40;99.90;;;;;;4974853;28;20030;-77
2022/06/05 09:31:40;;;;;;;1999.90;999.90;;;19.50;99.90;;;;;;4975360;28;20513;-78
2022/06/05 09:34:21;;;;;;;1999.90;999.90;;;19.60;99.90;;;;;;4957114;28;20027;-77
2022/06/05 09:37:05;;;;;;;1999.90;999.90;;;19.40;99.90;;;;;;4975003;28;20078;-77
2022/06/05 09:39:45;;;;;;;1999.90;999.90;;;19.70;99.90;;;;;;4962992;28;20031;-73
2022/06/05 09:42:29;;;;;;;1999.90;999.90;;;19.90;99.90;;;;;;4966244;28;20015;-77
2022/06/05 09:45:13;;;;;;;1999.90;999.90;;;20.00;99.90;;;;;;4975148;28;20097;-77
2022/06/05 09:48:02;;;;;;;1999.90;999.90;;;19.60;99.90;;;;;;4964845;28;20027;-77
2022/06/05 09:50:29;;;;;;;1999.90;999.90;;;19.50;99.90;;;;;;4974405;28;20031;-76
2022/06/05 09:52:55;;;;;;;1999.90;999.90;;;19.30;99.90;;;;;;4974321;28;20062;-77
2022/06/05 09:55:30;;;;;;;1999.90;999.90;;;19.30;99.90;;;;;;4972663;28;20031;-77
2022/06/05 09:58:33;;;;;;;1999.90;999.90;;;19.20;99.90;;;;;;4959634;28;20027;-77
2022/06/05 10:01:01;;;;;;;1999.90;999.90;;;19.10;99.90;;;;;;4974737;28;20030;-77
2022/06/05 10:03:35;;;;;;;1999.90;999.90;;;18.90;99.90;;;;;;4974723;28;20022;-77
2022/06/05 10:06:29;;;;;;;1999.90;999.90;;;19.00;99.90;;;;;;4974397;28;20031;-77
2022/06/05 10:09:06;;;;;;;1999.90;999.90;;;19.10;99.90;;;;;;4965663;28;20093;-77
2022/06/05 10:12:12;;;;;;;1999.90;999.90;;;19.10;99.90;;;;;;4974389;28;20034;-77
2022/06/05 10:14:58;;;;;;;1999.90;999.90;;;19.10;99.90;;;;;;4962116;28;20043;-77
2022/06/05 10:17:49;;;;;;;1999.90;999.90;;;19.40;99.90;;;;;;4956549;28;20117;-76
2022/06/05 10:20:32;;;;;;;1999.90;999.90;;;19.40;99.90;;;;;;4956878;28;20105;-77
2022/06/05 10:23:22;;;;;;;1999.90;999.90;;;19.30;99.90;;;;;;4970423;28;21446;-77
2022/06/05 10:26:15;;;;;;;1999.90;999.90;;;19.40;99.90;;;;;;4957823;28;20494;-77
2022/06/05 10:28:43;;;;;;;1999.90;999.90;;;19.50;99.90;;;;;;4973989;28;20452;-77
2022/06/05 10:31:27;;;;;;;1999.90;999.90;;;19.70;99.90;;;;;;4974012;28;20412;-74
2022/06/05 10:34:15;;;;;;;1999.90;999.90;;;19.90;99.90;;;;;;4974187;28;20029;-77
2022/06/05 10:37:15;;;;;;;1999.90;999.90;;;20.10;99.90;;;;;;4973868;28;20015;-77
2022/06/05 10:40:06;;;;;;;1999.90;999.90;;;20.60;99.90;;;;;;4962437;28;20058;-77
2022/06/05 10:42:45;;;;;;;1999.90;999.90;;;20.50;99.90;;;;;;4965818;28;20509;-76
2022/06/05 10:45:21;;;;;;;1999.90;999.90;;;20.10;99.90;;;;;;4970315;28;20489;-76
2022/06/05 10:47:56;;;;;;;1999.90;999.90;;;20.20;99.90;;;;;;4961973;28;20387;-77
2022/06/05 10:50:43;;;;;;;1999.90;999.90;;;20.10;99.90;;;;;;4973528;28;20022;-77
2022/06/05 10:53:27;;;;;;;1999.90;999.90;;;21.00;99.90;;;;;;4974002;28;20058;-77
2022/06/05 10:56:17;;;;;;;1999.90;999.90;;;21.00;99.90;;;;;;4973512;28;20023;-77
2022/06/05 10:59:13;;;;;;;1999.90;999.90;;;21.10;99.90;;;;;;4965973;28;20098;-77
2022/06/05 11:02:08;;;;;;;1999.90;999.90;;;21.60;99.90;;;;;;4961039;28;20405;-77
2022/06/05 11:05:05;;;;;;;1999.90;999.90;;;21.40;99.90;;;;;;4908726;28;20482;-77
2022/06/05 11:07:36;;;;;;;1999.90;999.90;;;20.70;99.90;;;;;;4973575;28;20034;-76
2022/06/05 11:10:14;;;;;;;1999.90;999.90;;;20.70;99.90;;;;;;4973671;28;20035;-77
2022/06/05 11:15:57;;;;;;;1999.90;999.90;;;20.40;99.90;;;;;;4964010;28;20038;-77
2022/06/05 11:18:43;;;;;;;1999.90;999.90;;;20.30;99.90;;;;;;4962306;28;20019;-77
2022/06/05 11:21:10;;;;;;;1999.90;999.90;;;20.30;99.90;;;;;;4958033;28;20162;-77
2022/06/05 11:23:41;;;;;;;1999.90;999.90;;;20.30;99.90;;;;;;4956552;28;20051;-77
2022/06/05 11:26:21;;;;;;;1999.90;999.90;;;20.60;99.90;;;;;;4969081;28;20030;-77
2022/06/05 11:28:59;;;;;;;1999.90;999.90;;;20.80;99.90;;;;;;4973366;28;20030;-77
2022/06/05 11:31:39;;;;;;;1999.90;999.90;;;20.90;99.90;;;;;;4956063;28;20509;-77
2022/06/05 11:34:23;;;;;;;1999.90;999.90;;;20.70;99.90;;;;;;4973194;28;20366;-76
2022/06/05 11:36:55;;;;;;;1999.90;999.90;;;20.30;99.90;;;;;;4973285;28;20026;-77
2022/06/05 11:39:46;;;;;;;1999.90;999.90;;;20.10;99.90;;;;;;4962036;28;20501;-76
2022/06/05 11:42:30;;;;;;;1999.90;999.90;;;19.60;99.90;;;;;;4960473;28;20030;-77
2022/06/05 11:45:19;;;;;;;1999.90;999.90;;;19.90;99.90;;;;;;4961229;28;20066;-76
2022/06/05 11:48:04;;;;;;;1999.90;999.90;;;20.40;99.90;;;;;;4959044;28;20064;-77
2022/06/05 11:50:45;;;;;;;1999.90;999.90;;;20.50;99.90;;;;;;4972788;28;20031;-76
2022/06/05 11:53:29;;;;;;;1999.90;999.90;;;20.60;99.90;;;;;;4973441;28;20042;-77
2022/06/05 11:56:08;;;;;;;1999.90;999.90;;;20.80;99.90;;;;;;4973389;28;20026;-77
2022/06/05 11:58:49;;;;;;;1999.90;999.90;;;21.30;99.90;;;;;;4968060;28;20031;-76
2022/06/05 12:01:20;;;;;;;1999.90;999.90;;;22.10;99.90;;;;;;4976513;28;20027;-77
2022/06/05 12:04:15;;;;;;;1999.90;999.90;;;21.50;99.90;;;;;;4976939;28;20031;-76
2022/06/05 12:06:54;;;;;;;1999.90;999.90;;;20.30;99.90;;;;;;4976589;28;20613;-77
2022/06/05 12:09:24;;;;;;;1999.90;999.90;;;20.20;99.90;;;;;;4976750;28;20038;-77
2022/06/05 12:12:13;;;;;;;1999.90;999.90;;;20.40;99.90;;;;;;4976775;28;20050;-77
2022/06/05 12:15:07;;;;;;;1999.90;999.90;;;21.60;99.90;;;;;;4964323;28;20517;-77
2022/06/05 12:17:57;;;;;;;1999.90;999.90;;;22.40;99.90;;;;;;4959620;28;20041;-77
2022/06/05 12:20:34;;;;;;;1999.90;999.90;;;23.40;99.60;;;;;;4971044;28;20031;-76
2022/06/05 12:23:17;;;;;;;1999.90;999.90;;;22.90;99.20;;;;;;4965818;28;20044;-77
2022/06/05 12:26:15;;;;;;;1999.90;999.90;;;22.00;99.90;;;;;;4960212;28;20092;-77
2022/06/05 12:28:57;;;;;;;1999.90;999.90;;;21.40;99.90;;;;;;4974738;28;20081;-76
2022/06/05 12:31:31;;;;;;;1999.90;999.90;;;20.50;99.90;;;;;;4958856;28;20062;-76
2022/06/05 12:34:19;;;;;;;1999.90;999.90;;;20.20;99.90;;;;;;4976243;28;20027;-76
2022/06/05 12:37:05;;;;;;;1999.90;999.90;;;20.20;99.90;;;;;;4976256;28;20098;-77
2022/06/05 12:39:43;;;;;;;1999.90;999.90;;;20.60;99.90;;;;;;4964681;28;20043;-77
2022/06/05 12:42:27;;;;;;;1999.90;999.90;;;21.00;99.90;;;;;;4964455;28;20034;-76
2022/06/05 12:44:55;;;;;;;1999.90;999.90;;;21.10;99.90;;;;;;4965717;28;20065;-77
2022/06/05 12:47:38;;;;;;;1999.90;999.90;;;21.10;99.90;;;;;;4967595;28;20565;-77